createdAt,value
2019-04-16T00:01:59.697Z,13.50
2019-04-16T00:05:03.038Z,13.50
2019-04-16T00:08:00.264Z,13.50
2019-04-16T00:10:58.713Z,13.50
2019-04-16T00:13:33.569Z,13.50
2019-04-16T00:16:23.397Z,13.50
2019-04-16T00:18:57.877Z,13.50
2019-04-16T00:21:48.727Z,13.50
2019-04-16T00:24:23.539Z,13.50
2019-04-16T00:26:57.843Z,13.50
2019-04-16T00:29:25.277Z,13.50
2019-04-16T00:32:07.856Z,13.50
2019-04-16T00:34:34.683Z,13.50
2019-04-16T00:37:04.093Z,13.50
2019-04-16T00:39:34.640Z,13.50
2019-04-16T00:42:05.327Z,13.50
2019-04-16T00:44:34.674Z,13.50
2019-04-16T00:47:04.065Z,13.50
2019-04-16T00:49:33.507Z,13.50
2019-04-16T00:52:06.759Z,13.40
2019-04-16T00:54:35.398Z,13.40
2019-04-16T00:57:04.841Z,13.40
2019-04-16T00:59:34.255Z,13.40
2019-04-16T01:02:03.653Z,13.40
2019-04-16T01:04:33.102Z,13.40
2019-04-16T01:07:21.660Z,13.40
2019-04-16T01:09:51.106Z,13.30
2019-04-16T01:12:20.543Z,13.30
2019-04-16T01:14:51.341Z,13.30
2019-04-16T01:17:20.702Z,13.30
2019-04-16T01:19:50.094Z,13.20
2019-04-16T01:22:19.524Z,13.20
2019-04-16T01:24:51.396Z,13.20
2019-04-16T01:27:22.970Z,13.20
2019-04-16T01:29:52.396Z,13.20
2019-04-16T01:32:42.698Z,13.10
2019-04-16T01:35:40.334Z,13.10
2019-04-16T01:38:30.966Z,13.10
2019-04-16T01:41:05.562Z,13.00
2019-04-16T01:43:35.262Z,13.00
2019-04-16T01:46:04.633Z,13.00
2019-04-16T01:48:38.609Z,13.00
2019-04-16T01:51:05.402Z,12.90
2019-04-16T01:53:34.789Z,12.90
2019-04-16T01:56:04.721Z,12.90
2019-04-16T01:58:34.664Z,12.80
2019-04-16T02:01:05.171Z,12.80
2019-04-16T02:03:34.485Z,12.80
2019-04-16T02:06:03.830Z,12.80
2019-04-16T02:08:33.271Z,12.80
2019-04-16T02:11:03.047Z,12.70
2019-04-16T02:13:32.458Z,12.70
2019-04-16T02:16:01.903Z,12.60
2019-04-16T02:18:31.335Z,12.60
2019-04-16T02:21:00.750Z,12.60
2019-04-16T02:23:30.147Z,12.60
2019-04-16T02:25:59.591Z,12.60
2019-04-16T02:28:29.495Z,12.50
2019-04-16T02:30:59.122Z,12.60
2019-04-16T02:33:28.601Z,12.50
2019-04-16T02:35:58.221Z,12.50
2019-04-16T02:38:27.685Z,12.50
2019-04-16T02:40:57.079Z,12.50
2019-04-16T02:43:26.652Z,12.40
2019-04-16T02:45:58.681Z,12.50
2019-04-16T02:48:28.348Z,12.50
2019-04-16T02:53:54.561Z,12.40
2019-04-16T02:56:43.119Z,12.30
2019-04-16T02:59:20.041Z,12.40
2019-04-16T03:02:22.796Z,12.30
2019-04-16T03:04:58.337Z,12.10
2019-04-16T03:07:28.050Z,12.20
2019-04-16T03:10:01.444Z,12.20
2019-04-16T03:12:28.805Z,12.20
2019-04-16T03:15:01.282Z,12.20
2019-04-16T03:17:39.537Z,12.10
2019-04-16T03:20:11.029Z,12.10
2019-04-16T03:22:40.460Z,12.10
2019-04-16T03:25:13.831Z,12.10
2019-04-16T03:27:41.547Z,12.10
2019-04-16T03:30:11.605Z,12.00
2019-04-16T03:32:49.716Z,12.00
2019-04-16T03:35:25.152Z,11.90
2019-04-16T03:37:52.858Z,11.90
2019-04-16T03:40:25.482Z,11.90
2019-04-16T03:42:58.868Z,11.80
2019-04-16T03:45:25.709Z,11.80
2019-04-16T03:47:55.060Z,11.80
2019-04-16T03:50:25.487Z,11.80
2019-04-16T03:52:55.057Z,11.70
2019-04-16T03:55:26.327Z,11.70
2019-04-16T03:57:55.858Z,11.70
2019-04-16T04:00:25.394Z,11.60
2019-04-16T04:02:55.436Z,11.60
2019-04-16T04:05:24.912Z,11.50
2019-04-16T04:07:55.339Z,11.40
2019-04-16T04:10:30.891Z,11.40
2019-04-16T04:12:56.102Z,11.30
2019-04-16T04:15:26.311Z,11.20
2019-04-16T04:17:56.584Z,11.20
2019-04-16T04:20:25.938Z,11.10
2019-04-16T04:22:57.909Z,11.10
2019-04-16T04:25:27.400Z,11.00
2019-04-16T04:27:57.005Z,11.00
2019-04-16T04:30:28.834Z,11.00
2019-04-16T04:32:57.787Z,11.00
2019-04-16T04:35:27.207Z,10.90
2019-04-16T04:37:56.641Z,10.90
2019-04-16T04:40:26.501Z,10.90
2019-04-16T04:43:14.996Z,10.90
2019-04-16T04:45:46.164Z,10.90
2019-04-16T04:48:15.635Z,10.90
2019-04-16T04:50:46.097Z,10.90
2019-04-16T04:53:18.344Z,10.90
2019-04-16T04:55:46.566Z,10.80
2019-04-16T04:58:16.285Z,10.90
2019-04-16T05:00:45.616Z,10.80
2019-04-16T05:03:25.215Z,10.80
2019-04-16T05:05:56.748Z,10.80
2019-04-16T05:08:28.681Z,10.80
2019-04-16T05:10:59.861Z,10.80
2019-04-16T05:13:28.425Z,10.80
2019-04-16T05:15:58.353Z,10.80
2019-04-16T05:18:28.989Z,10.80
2019-04-16T05:21:01.190Z,10.90
2019-04-16T05:23:30.582Z,10.90
2019-04-16T05:26:04.492Z,10.90
2019-04-16T05:28:31.142Z,11.00
2019-04-16T05:31:00.514Z,11.00
2019-04-16T05:33:30.253Z,11.00
2019-04-16T05:35:59.596Z,11.10
2019-04-16T05:38:28.975Z,11.10
2019-04-16T05:41:12.215Z,11.20
2019-04-16T05:43:30.895Z,11.20
2019-04-16T05:46:00.525Z,11.30
2019-04-16T05:48:29.973Z,11.30
2019-04-16T05:50:59.996Z,11.40
2019-04-16T05:53:30.503Z,11.40
2019-04-16T05:56:13.731Z,11.50
2019-04-16T05:58:43.227Z,11.50
2019-04-16T06:01:34.333Z,11.60
2019-04-16T06:04:03.819Z,11.70
2019-04-16T06:06:33.332Z,11.70
2019-04-16T06:09:02.837Z,11.70
2019-04-16T06:11:35.991Z,11.70
2019-04-16T06:14:16.879Z,11.70
2019-04-16T06:17:03.561Z,11.70
2019-04-16T06:19:50.709Z,11.70
2019-04-16T06:22:31.907Z,11.60
2019-04-16T06:25:21.745Z,11.60
2019-04-16T06:28:01.471Z,11.60
2019-04-16T06:30:55.674Z,11.70
2019-04-16T06:33:30.503Z,11.70
2019-04-16T06:36:21.700Z,11.70
2019-04-16T06:39:08.715Z,11.70
2019-04-16T06:41:58.317Z,11.70
2019-04-16T06:44:30.234Z,11.80
2019-04-16T06:47:14.912Z,11.80
2019-04-16T06:49:54.717Z,11.80
2019-04-16T06:53:01.281Z,11.90
2019-04-16T06:55:58.683Z,12.00
2019-04-16T06:58:50.222Z,12.10
2019-04-16T07:01:36.817Z,12.10
2019-04-16T07:04:11.889Z,12.20
2019-04-16T07:06:58.423Z,12.20
2019-04-16T07:09:41.718Z,12.30
2019-04-16T07:12:18.527Z,12.40
2019-04-16T07:14:48.303Z,12.50
2019-04-16T07:17:18.931Z,12.60
2019-04-16T07:19:48.515Z,12.70
2019-04-16T07:22:21.270Z,12.70
2019-04-16T07:24:55.509Z,12.80
2019-04-16T07:27:25.352Z,12.90
2019-04-16T07:30:21.984Z,13.00
2019-04-16T07:33:10.324Z,13.00
2019-04-16T07:35:59.340Z,13.20
2019-04-16T07:38:46.932Z,13.20
2019-04-16T07:41:37.276Z,13.30
2019-04-16T07:44:13.199Z,13.40
2019-04-16T07:47:19.762Z,13.40
2019-04-16T07:50:09.677Z,13.40
2019-04-16T07:53:07.434Z,13.60
2019-04-16T07:55:54.708Z,13.60
2019-04-16T07:58:24.177Z,13.80
2019-04-16T08:00:53.624Z,13.80
2019-04-16T08:03:26.865Z,13.90
2019-04-16T08:06:15.973Z,14.00
2019-04-16T08:08:46.693Z,14.00
2019-04-16T08:11:17.841Z,14.10
2019-04-16T08:13:47.523Z,14.10
2019-04-16T08:16:16.974Z,14.20
2019-04-16T08:18:52.543Z,14.20
2019-04-16T08:21:22.674Z,14.20
2019-04-16T08:24:01.545Z,14.30
2019-04-16T08:26:30.970Z,14.30
2019-04-16T08:29:00.339Z,14.30
2019-04-16T08:31:33.083Z,14.40
2019-04-16T08:34:02.066Z,14.40
2019-04-16T08:36:32.524Z,14.30
2019-04-16T08:39:05.870Z,14.40
2019-04-16T08:41:33.026Z,14.40
2019-04-16T08:44:04.484Z,14.40
2019-04-16T08:46:34.736Z,14.40
2019-04-16T08:49:04.990Z,14.40
2019-04-16T08:51:37.760Z,14.40
2019-04-16T08:54:07.380Z,14.50
2019-04-16T08:56:36.751Z,14.50
2019-04-16T08:59:09.492Z,14.50
2019-04-16T09:01:37.570Z,14.50
2019-04-16T09:04:06.999Z,14.50
2019-04-16T09:06:36.377Z,14.60
2019-04-16T09:09:41.361Z,14.60
2019-04-16T09:12:10.859Z,14.70
2019-04-16T09:14:45.673Z,14.70
2019-04-16T09:17:21.525Z,14.70
2019-04-16T09:19:56.541Z,14.80
2019-04-16T09:22:25.933Z,14.80
2019-04-16T09:25:03.969Z,14.80
2019-04-16T09:28:01.895Z,14.80
2019-04-16T09:31:09.035Z,14.80
2019-04-16T09:34:06.363Z,14.80
2019-04-16T09:36:52.092Z,14.90
2019-04-16T09:39:55.626Z,14.90
2019-04-16T09:42:25.138Z,14.90
2019-04-16T09:44:54.567Z,14.90
2019-04-16T09:47:24.252Z,14.90
2019-04-16T09:49:54.198Z,14.90
2019-04-16T09:52:24.189Z,15.00
2019-04-16T09:54:53.668Z,15.00
2019-04-16T09:57:24.484Z,15.00
2019-04-16T10:00:00.091Z,15.00
2019-04-16T10:02:33.824Z,15.00
2019-04-16T10:05:05.720Z,15.10
2019-04-16T10:07:39.953Z,15.10
2019-04-16T10:10:08.144Z,15.10
2019-04-16T10:12:37.586Z,15.20
2019-04-16T10:15:07.782Z,15.20
2019-04-16T10:17:37.175Z,15.20
2019-04-16T10:20:08.262Z,15.20
2019-04-16T10:22:37.758Z,15.20
2019-04-16T10:25:14.326Z,15.30
2019-04-16T10:28:05.092Z,15.30
2019-04-16T10:30:43.577Z,15.30
2019-04-16T10:33:13.158Z,15.40
2019-04-16T10:35:42.592Z,15.30
2019-04-16T10:38:29.251Z,15.40
2019-04-16T10:41:20.609Z,15.30
2019-04-16T10:44:11.835Z,15.30
2019-04-16T10:47:06.187Z,15.30
2019-04-16T10:49:54.573Z,15.30
2019-04-16T10:52:54.538Z,15.40
2019-04-16T10:55:39.174Z,15.40
2019-04-16T10:58:26.289Z,15.40
2019-04-16T11:01:01.171Z,15.50
2019-04-16T11:03:44.390Z,15.50
2019-04-16T11:06:18.562Z,15.50
2019-04-16T11:08:47.961Z,15.50
2019-04-16T11:11:17.369Z,15.40
2019-04-16T11:13:59.746Z,15.50
2019-04-16T11:16:22.860Z,15.50
2019-04-16T11:18:54.964Z,15.50
2019-04-16T11:21:23.835Z,15.60
2019-04-16T11:23:53.288Z,15.50
2019-04-16T11:26:22.703Z,15.60
2019-04-16T11:28:52.261Z,15.60
2019-04-16T11:31:22.914Z,15.50
2019-04-16T11:33:52.311Z,15.60
2019-04-16T11:36:21.788Z,15.60
2019-04-16T11:38:51.309Z,15.60
2019-04-16T11:41:20.742Z,15.70
2019-04-16T11:43:50.408Z,15.70
2019-04-16T11:46:19.856Z,15.70
2019-04-16T11:48:50.311Z,15.70
2019-04-16T11:51:21.285Z,15.70
2019-04-16T11:53:50.923Z,15.70
2019-04-16T11:56:22.606Z,15.80
2019-04-16T11:58:52.616Z,15.70
2019-04-16T12:01:40.903Z,15.70
2019-04-16T12:04:15.242Z,15.80
2019-04-16T12:07:08.146Z,15.80
2019-04-16T12:10:14.674Z,15.80
2019-04-16T12:12:52.454Z,15.80
2019-04-16T12:15:30.399Z,15.80
2019-04-16T12:18:06.425Z,15.90
2019-04-16T12:21:02.519Z,15.80
2019-04-16T12:23:49.364Z,15.80
2019-04-16T12:26:34.432Z,15.90
2019-04-16T12:29:18.754Z,15.80
2019-04-16T12:32:13.960Z,15.90
2019-04-16T12:35:34.874Z,15.90
2019-04-16T12:38:12.254Z,15.90
2019-04-16T12:41:13.512Z,15.90
2019-04-16T12:43:54.352Z,15.90
2019-04-16T12:46:48.550Z,15.90
2019-04-16T12:49:37.306Z,16.00
2019-04-16T12:52:28.478Z,15.90
2019-04-16T12:55:23.675Z,16.00
2019-04-16T12:58:07.709Z,16.00
2019-04-16T13:00:44.785Z,15.90
2019-04-16T13:03:31.720Z,16.00
2019-04-16T13:06:35.528Z,16.00
2019-04-16T13:09:27.327Z,16.00
2019-04-16T13:12:27.551Z,16.10
2019-04-16T13:15:15.953Z,16.00
2019-04-16T13:18:03.465Z,16.10
2019-04-16T13:20:51.788Z,16.10
2019-04-16T13:23:31.231Z,16.10
2019-04-16T13:26:25.403Z,16.10
2019-04-16T13:28:56.091Z,16.20
2019-04-16T13:31:25.603Z,16.10
2019-04-16T13:33:55.057Z,16.10
2019-04-16T13:36:27.220Z,16.10
2019-04-16T13:39:17.224Z,16.20
2019-04-16T13:41:48.516Z,16.20
2019-04-16T13:44:20.703Z,16.20
2019-04-16T13:46:50.090Z,16.20
2019-04-16T13:49:31.226Z,16.20
2019-04-16T13:51:57.550Z,16.20
2019-04-16T13:54:47.669Z,16.20
2019-04-16T13:57:19.481Z,16.20
2019-04-16T14:00:09.034Z,16.30
2019-04-16T14:02:44.238Z,16.30
2019-04-16T14:05:18.679Z,16.30
2019-04-16T14:07:48.159Z,16.20
2019-04-16T14:10:17.549Z,16.20
2019-04-16T14:12:47.226Z,16.30
2019-04-16T14:15:31.306Z,16.20
2019-04-16T14:17:53.001Z,16.20
2019-04-16T14:20:21.863Z,16.20
2019-04-16T14:22:53.655Z,16.20
2019-04-16T14:25:22.389Z,16.30
2019-04-16T14:27:55.269Z,16.30
2019-04-16T14:30:27.567Z,16.30
2019-04-16T14:32:58.207Z,16.30
2019-04-16T14:35:33.589Z,16.30
2019-04-16T14:38:00.958Z,16.30
2019-04-16T14:40:30.906Z,16.30
2019-04-16T14:43:01.475Z,16.30
2019-04-16T14:45:57.058Z,16.30
2019-04-16T14:48:11.278Z,16.30
2019-04-16T14:50:40.686Z,16.40
2019-04-16T14:53:10.174Z,16.40
2019-04-16T14:56:05.447Z,16.40
2019-04-16T14:59:00.267Z,16.40
2019-04-16T15:01:54.400Z,16.40
2019-04-16T15:04:32.362Z,16.40
2019-04-16T15:07:10.933Z,16.40
2019-04-16T15:10:03.507Z,16.40
2019-04-16T15:13:04.001Z,16.40
2019-04-16T15:16:26.453Z,16.40
2019-04-16T15:19:11.748Z,16.40
2019-04-16T15:21:59.437Z,16.40
2019-04-16T15:24:46.580Z,16.40
2019-04-16T15:27:43.819Z,16.40
2019-04-16T15:30:38.555Z,16.40
2019-04-16T15:33:25.804Z,16.40
2019-04-16T15:35:59.249Z,16.50
2019-04-16T15:39:05.844Z,16.40
2019-04-16T15:41:47.157Z,16.40
2019-04-16T15:44:25.744Z,16.50
2019-04-16T15:47:20.039Z,16.40
2019-04-16T15:49:57.114Z,16.40
2019-04-16T15:53:00.622Z,16.40
2019-04-16T15:55:56.375Z,16.40
2019-04-16T15:59:03.043Z,16.30
2019-04-16T16:01:50.840Z,16.40
2019-04-16T16:04:27.751Z,16.30
2019-04-16T16:07:00.630Z,16.40
2019-04-16T16:09:47.453Z,16.30
2019-04-16T16:12:22.381Z,16.30
2019-04-16T16:14:52.366Z,16.30
2019-04-16T16:17:22.641Z,16.30
2019-04-16T16:19:52.794Z,16.20
2019-04-16T16:22:22.186Z,16.20
2019-04-16T16:24:51.624Z,16.20
2019-04-16T16:27:21.043Z,16.20
2019-04-16T16:29:50.496Z,16.10
2019-04-16T16:32:19.886Z,16.10
2019-04-16T16:34:49.417Z,16.10
2019-04-16T16:37:18.837Z,16.10
2019-04-16T16:39:48.311Z,16.00
2019-04-16T16:42:17.803Z,16.00
2019-04-16T16:44:47.208Z,16.00
2019-04-16T16:47:41.328Z,15.90
2019-04-16T16:50:14.677Z,15.90
2019-04-16T16:52:59.438Z,15.80
2019-04-16T16:55:47.752Z,15.80
2019-04-16T16:58:42.148Z,15.80
2019-04-16T17:01:33.587Z,15.70
2019-04-16T17:04:12.046Z,15.70
2019-04-16T17:06:41.471Z,15.60
2019-04-16T17:09:22.155Z,15.60
2019-04-16T17:11:51.544Z,15.50
2019-04-16T17:14:20.956Z,15.50
2019-04-16T17:16:50.439Z,15.40
2019-04-16T17:19:19.957Z,15.50
2019-04-16T17:21:49.399Z,15.40
2019-04-16T17:24:18.786Z,15.30
2019-04-16T17:26:50.060Z,15.30
2019-04-16T17:29:19.245Z,15.20
2019-04-16T17:31:48.977Z,15.20
2019-04-16T17:34:19.901Z,15.10
2019-04-16T17:36:51.588Z,15.10
2019-04-16T17:39:42.357Z,15.10
2019-04-16T17:42:10.567Z,15.10
2019-04-16T17:44:49.515Z,15.00
2019-04-16T17:47:32.333Z,15.00
2019-04-16T17:50:04.751Z,14.90
2019-04-16T17:53:05.295Z,14.90
2019-04-16T17:55:52.158Z,14.80
2019-04-16T17:58:36.528Z,14.80
2019-04-16T18:01:23.406Z,14.80
2019-04-16T18:03:59.036Z,14.70
2019-04-16T18:07:03.199Z,14.70
2019-04-16T18:09:40.147Z,14.60
2019-04-16T18:12:41.867Z,14.60
2019-04-16T18:15:28.408Z,14.60
2019-04-16T18:18:16.935Z,14.50
2019-04-16T18:21:02.264Z,14.50
2019-04-16T18:23:44.915Z,14.50
2019-04-16T18:26:39.125Z,14.40
2019-04-16T18:29:32.878Z,14.40
2019-04-16T18:32:21.081Z,14.40
2019-04-16T18:35:00.823Z,14.40
2019-04-16T18:37:48.722Z,14.40
2019-04-16T18:40:30.323Z,14.30
2019-04-16T18:43:18.681Z,14.30
2019-04-16T18:46:15.178Z,14.30
2019-04-16T18:48:44.832Z,14.30
2019-04-16T18:51:14.975Z,14.20
2019-04-16T18:53:44.364Z,14.20
2019-04-16T18:56:13.806Z,14.20
2019-04-16T18:58:43.525Z,14.20
2019-04-16T19:01:24.680Z,14.20
2019-04-16T19:03:52.841Z,14.20
2019-04-16T19:06:22.268Z,14.10
2019-04-16T19:08:52.727Z,14.10
2019-04-16T19:11:22.198Z,14.10
2019-04-16T19:13:51.588Z,14.10
2019-04-16T19:16:21.061Z,14.00
2019-04-16T19:18:50.480Z,14.00
2019-04-16T19:21:19.941Z,14.00
2019-04-16T19:23:49.399Z,14.00
2019-04-16T19:26:18.826Z,14.00
2019-04-16T19:28:48.157Z,14.00
2019-04-16T19:31:22.804Z,14.00
2019-04-16T19:33:49.047Z,13.90
2019-04-16T19:36:19.755Z,13.90
2019-04-16T19:38:49.631Z,13.90
2019-04-16T19:41:23.137Z,13.90
2019-04-16T19:43:50.158Z,13.80
2019-04-16T19:46:19.491Z,13.80
2019-04-16T19:48:48.885Z,13.80
2019-04-16T19:51:19.719Z,13.80
2019-04-16T19:53:49.322Z,13.80
2019-04-16T19:56:19.620Z,13.70
2019-04-16T19:58:49.075Z,13.80
2019-04-16T20:01:18.449Z,13.70
2019-04-16T20:03:47.892Z,13.70
2019-04-16T20:06:17.304Z,13.70
2019-04-16T20:08:46.748Z,13.70
2019-04-16T20:11:20.393Z,13.70
2019-04-16T20:13:47.836Z,13.70
2019-04-16T20:16:17.191Z,13.70
2019-04-16T20:18:51.353Z,13.60
2019-04-16T20:21:17.748Z,13.60
2019-04-16T20:23:47.149Z,13.60
2019-04-16T20:26:16.567Z,13.60
2019-04-16T20:28:48.409Z,13.50
2019-04-16T20:31:17.021Z,13.50
2019-04-16T20:33:46.523Z,13.50
2019-04-16T20:36:15.871Z,13.50
2019-04-16T20:38:45.257Z,13.50
2019-04-16T20:41:18.095Z,13.50
2019-04-16T20:43:45.762Z,13.50
2019-04-16T20:46:15.138Z,13.40
2019-04-16T20:48:45.100Z,13.40
2019-04-16T20:51:15.058Z,13.40
2019-04-16T20:53:44.422Z,13.40
2019-04-16T20:56:19.871Z,13.40
2019-04-16T20:58:44.935Z,13.40
2019-04-16T21:01:14.932Z,13.40
2019-04-16T21:03:46.046Z,13.30
2019-04-16T21:06:15.443Z,13.30
2019-04-16T21:08:44.851Z,13.30
2019-04-16T21:11:14.218Z,13.30
2019-04-16T21:13:43.934Z,13.30
2019-04-16T21:16:13.258Z,13.30
2019-04-16T21:18:42.681Z,13.30
2019-04-16T21:21:12.139Z,13.30
2019-04-16T21:23:41.599Z,13.20
2019-04-16T21:26:11.067Z,13.20
2019-04-16T21:28:48.980Z,13.20
2019-04-16T21:31:23.223Z,13.20
2019-04-16T21:34:14.314Z,13.20
2019-04-16T21:36:55.086Z,13.20
2019-04-16T21:39:32.173Z,13.20
2019-04-16T21:42:03.075Z,13.10
2019-04-16T21:44:32.825Z,13.10
2019-04-16T21:47:02.135Z,13.10
2019-04-16T21:49:38.840Z,13.10
2019-04-16T21:52:08.625Z,13.10
2019-04-16T21:54:38.354Z,13.10
2019-04-16T21:57:09.138Z,13.10
2019-04-16T21:59:39.142Z,13.10
2019-04-16T22:02:38.026Z,13.10
2019-04-16T22:05:08.933Z,13.10
2019-04-16T22:07:38.400Z,13.00
2019-04-16T22:10:08.354Z,13.00
2019-04-16T22:12:37.698Z,13.00
2019-04-16T22:15:07.702Z,13.00
2019-04-16T22:17:37.165Z,13.00
2019-04-16T22:20:07.007Z,12.90
2019-04-16T22:22:36.504Z,12.90
2019-04-16T22:25:06.249Z,12.90
2019-04-16T22:27:36.836Z,12.90
2019-04-16T22:30:07.045Z,12.90
2019-04-16T22:32:36.534Z,12.80
2019-04-16T22:35:06.501Z,12.80
2019-04-16T22:37:35.947Z,12.80
2019-04-16T22:40:40.021Z,12.80
2019-04-16T22:43:26.686Z,12.80
2019-04-16T22:46:00.762Z,12.80
2019-04-16T22:48:30.180Z,12.80
2019-04-16T22:50:59.588Z,12.80
2019-04-16T22:53:29.138Z,12.70
2019-04-16T22:55:59.175Z,12.70
2019-04-16T22:58:47.101Z,12.70
2019-04-16T23:01:16.941Z,12.70
2019-04-16T23:03:46.351Z,12.60
2019-04-16T23:06:15.765Z,12.60
2019-04-16T23:08:45.138Z,12.50
2019-04-16T23:11:14.547Z,12.50
2019-04-16T23:13:44.017Z,12.40
2019-04-16T23:16:13.795Z,12.40
2019-04-16T23:18:43.142Z,12.40
2019-04-16T23:21:14.351Z,12.40
2019-04-16T23:23:43.745Z,12.40
2019-04-16T23:26:13.129Z,12.30
2019-04-16T23:28:43.108Z,12.30
2019-04-16T23:31:12.536Z,12.20
2019-04-16T23:33:42.993Z,12.20
2019-04-16T23:36:15.037Z,12.20
2019-04-16T23:38:43.524Z,12.20
2019-04-16T23:41:16.632Z,12.20
2019-04-16T23:44:04.244Z,12.20
2019-04-16T23:47:03.480Z,12.20
2019-04-16T23:49:38.895Z,12.10
2019-04-16T23:52:14.144Z,12.10
2019-04-16T23:54:51.466Z,12.00
2019-04-16T23:57:25.617Z,12.00
